Time,TemperatureF,DewpointF,PressureIn,WindDirection,WindDirectionDegrees,WindSpeedMPH,WindSpeedGustMPH,Humidity,HourlyPrecipIn,Conditions,Clouds,dailyrainin,SoftwareType,DateUTC
2013-01-28 00:05:00,8.6,-25.3,30.43,WSW,248,0.0,0.0,19,0.00,CLR,,0.00,WeatherDisplay:10.37,2013-01-28 05:05:00,
2013-01-28 00:10:00,8.6,-25.3,30.43,WSW,248,0.0,0.0,19,0.00,CLR,,0.00,WeatherDisplay:10.37,2013-01-28 05:10:00,
2013-01-28 00:20:00,8.6,-25.3,30.42,WSW,248,0.0,0.0,19,0.00,CLR,,0.00,WeatherDisplay:10.37,2013-01-28 05:20:00,
2013-01-28 00:30:00,8.4,-25.5,30.42,WSW,248,0.0,0.0,19,0.00,CLR,,0.00,WeatherDisplay:10.37,2013-01-28 05:30:00,
2013-01-28 00:40:00,8.2,-25.6,30.42,WSW,249,0.0,0.0,19,0.00,CLR,,0.00,WeatherDisplay:10.37,2013-01-28 05:40:00,
2013-01-28 00:50:00,7.9,-25.9,30.42,WSW,248,0.0,0.0,19,0.00,CLR,,0.00,WeatherDisplay:10.37,2013-01-28 05:50:00,
2013-01-28 01:00:00,7.7,-26.1,30.42,WSW,248,0.0,0.0,19,0.00,CLR,,0.00,WeatherDisplay:10.37,2013-01-28 06:00:00,
2013-01-28 01:10:00,7.7,-26.1,30.42,WSW,248,0.0,0.0,19,0.00,CLR,,0.00,WeatherDisplay:10.37,2013-01-28 06:10:00,
2013-01-28 01:20:00,8.1,-25.8,30.43,WSW,248,0.0,0.0,19,0.00,CLR,,0.00,WeatherDisplay:10.37,2013-01-28 06:20:00,
2013-01-28 01:30:00,8.5,-25.4,30.43,WSW,248,0.0,0.0,19,0.00,CLR,,0.00,WeatherDisplay:10.37,2013-01-28 06:30:00,
2013-01-28 01:40:00,9.0,-25.0,30.44,WSW,248,0.0,0.0,19,0.00,CLR,,0.00,WeatherDisplay:10.37,2013-01-28 06:40:00,
2013-01-28 01:50:00,9.1,-24.9,30.43,WSW,248,0.0,0.0,19,0.00,CLR,,0.00,WeatherDisplay:10.37,2013-01-28 06:50:00,
2013-01-28 02:00:00,9.3,-24.7,30.42,WSW,248,0.0,0.0,19,0.00,CLR,,0.00,WeatherDisplay:10.37,2013-01-28 07:00:00,
2013-01-28 02:05:00,9.3,-24.7,30.42,WSW,248,0.0,0.0,19,0.00,CLR,,0.00,WeatherDisplay:10.37,2013-01-28 07:05:00,
2013-01-28 02:10:00,9.1,-24.9,30.43,WSW,248,0.0,0.0,19,0.00,CLR,,0.00,WeatherDisplay:10.37,2013-01-28 07:10:00,
2013-01-28 02:20:00,9.0,-25.0,30.42,WSW,248,0.0,0.0,19,0.00,CLR,,0.00,WeatherDisplay:10.37,2013-01-28 07:20:00,
2013-01-28 02:30:00,9.0,-25.0,30.42,WSW,248,0.0,0.0,19,0.00,CLR,,0.00,WeatherDisplay:10.37,2013-01-28 07:30:00,
2013-01-28 02:35:00,9.0,-25.0,30.42,WSW,248,0.0,0.0,19,0.00,CLR,,0.00,WeatherDisplay:10.37,2013-01-28 07:35:00,
2013-01-28 02:40:00,9.1,-24.9,30.42,WSW,248,0.0,0.0,19,0.00,CLR,,0.00,WeatherDisplay:10.37,2013-01-28 07:40:00,
2013-01-28 02:50:00,9.5,-23.6,30.42,WSW,248,0.0,0.0,20,0.00,CLR,,0.00,WeatherDisplay:10.37,2013-01-28 07:50:00,
2013-01-28 03:00:00,9.9,-22.4,30.42,WSW,248,0.0,0.0,21,0.00,CLR,,0.00,WeatherDisplay:10.37,2013-01-28 08:00:00,
2013-01-28 03:05:00,10.2,-21.2,30.41,WSW,248,0.0,0.0,22,0.00,CLR,,0.00,WeatherDisplay:10.37,2013-01-28 08:05:00,
2013-01-28 03:10:00,10.6,-19.2,30.42,WSW,248,0.0,0.0,24,0.00,CLR,,0.00,WeatherDisplay:10.37,2013-01-28 08:10:00,
2013-01-28 03:20:00,11.1,-15.7,30.41,WSW,248,0.0,0.0,28,0.00,CLR,,0.00,WeatherDisplay:10.37,2013-01-28 08:20:00,
2013-01-28 03:30:00,11.6,-14.0,30.40,WSW,248,0.0,0.0,30,0.00,CLR,,0.00,WeatherDisplay:10.37,2013-01-28 08:30:00,
2013-01-28 03:40:00,11.9,-13.6,30.40,WSW,248,0.0,0.0,30,0.00,CLR,,0.00,WeatherDisplay:10.37,2013-01-28 08:40:00,
2013-01-28 03:50:00,12.1,-14.2,30.39,WSW,248,0.0,0.0,29,0.00,CLR,,0.00,WeatherDisplay:10.37,2013-01-28 08:50:00,
2013-01-28 04:00:00,11.8,-15.1,30.39,WSW,248,0.0,0.0,28,0.00,CLR,,0.00,WeatherDisplay:10.37,2013-01-28 09:00:00,
2013-01-28 04:05:00,11.7,-15.2,30.39,WSW,248,0.0,0.0,28,0.00,CLR,,0.00,WeatherDisplay:10.37,2013-01-28 09:05:00,
2013-01-28 04:10:00,11.6,-15.3,30.39,WSW,248,0.0,0.0,28,0.00,CLR,,0.00,WeatherDisplay:10.37,2013-01-28 09:10:00,
2013-01-28 04:20:00,11.3,-17.8,30.39,WSW,248,0.0,0.0,25,0.00,CLR,,0.00,WeatherDisplay:10.37,2013-01-28 09:20:00,
2013-01-28 04:30:00,11.3,-17.0,30.39,WSW,248,0.0,0.0,26,0.00,CLR,,0.00,WeatherDisplay:10.37,2013-01-28 09:30:00,
2013-01-28 04:40:00,11.0,-17.3,30.39,WSW,248,0.0,0.0,26,0.00,CLR,,0.00,WeatherDisplay:10.37,2013-01-28 09:40:00,
2013-01-28 04:50:00,10.6,-18.3,30.39,WSW,248,0.0,0.0,25,0.00,CLR,,0.00,WeatherDisplay:10.37,2013-01-28 09:50:00,
2013-01-28 05:00:00,10.6,-18.4,30.39,WSW,248,0.0,0.0,25,0.00,CLR,,0.00,WeatherDisplay:10.37,2013-01-28 10:00:00,
2013-01-28 05:05:00,10.6,-17.6,30.39,WSW,248,0.0,0.0,26,0.00,CLR,,0.00,WeatherDisplay:10.37,2013-01-28 10:05:00,
2013-01-28 05:10:00,10.6,-16.9,30.39,WSW,248,0.0,0.0,27,0.00,CLR,,0.00,WeatherDisplay:10.37,2013-01-28 10:10:00,
2013-01-28 05:20:00,10.6,-14.8,30.39,WSW,248,0.0,0.0,30,0.00,CLR,,0.00,WeatherDisplay:10.37,2013-01-28 10:20:00,
2013-01-28 05:30:00,10.6,-14.8,30.39,WSW,248,0.0,0.0,30,0.00,CLR,,0.00,WeatherDisplay:10.37,2013-01-28 10:30:00,
2013-01-28 05:40:00,10.9,-13.9,30.38,WSW,248,0.0,0.0,31,0.00,CLR,,0.00,WeatherDisplay:10.37,2013-01-28 10:40:00,
2013-01-28 05:50:00,11.3,-12.3,30.39,WSW,248,0.0,0.0,33,0.00,CLR,,0.00,WeatherDisplay:10.37,2013-01-28 10:50:00,
2013-01-28 06:00:00,11.8,-11.2,30.38,WSW,248,0.0,0.0,34,0.00,CLR,,0.00,WeatherDisplay:10.37,2013-01-28 11:00:00,
2013-01-28 06:05:00,12.0,-10.4,30.38,WSW,248,0.0,0.0,35,0.00,CLR,,0.00,WeatherDisplay:10.37,2013-01-28 11:05:00,
2013-01-28 06:10:00,12.2,-10.3,30.38,WSW,248,0.0,0.0,35,0.00,CLR,,0.00,WeatherDisplay:10.37,2013-01-28 11:10:00,
2013-01-28 06:20:00,12.4,-10.1,30.37,WSW,248,0.0,0.0,35,0.00,CLR,,0.00,WeatherDisplay:10.37,2013-01-28 11:20:00,
2013-01-28 06:30:00,12.6,-10.0,30.37,WSW,248,0.0,0.0,35,0.00,CLR,,0.00,WeatherDisplay:10.37,2013-01-28 11:30:00,
2013-01-28 06:40:00,12.9,-9.6,30.38,WSW,248,0.0,0.0,35,0.00,CLR,,0.00,WeatherDisplay:10.37,2013-01-28 11:40:00,
2013-01-28 06:50:00,13.1,-8.9,30.37,WSW,248,0.0,0.0,36,0.00,CLR,,0.00,WeatherDisplay:10.37,2013-01-28 11:50:00,
2013-01-28 07:00:00,13.3,-8.7,30.38,WSW,248,0.0,0.0,36,0.00,CLR,,0.00,WeatherDisplay:10.37,2013-01-28 12:00:00,
2013-01-28 07:05:00,13.6,-8.4,30.38,WSW,255,0.0,0.0,36,0.00,CLR,,0.00,WeatherDisplay:10.37,2013-01-28 12:05:00,
2013-01-28 07:10:00,14.0,-7.5,30.38,WSW,258,0.0,0.0,37,0.00,CLR,,0.00,WeatherDisplay:10.37,2013-01-28 12:10:00,
2013-01-28 07:20:00,14.3,-7.3,30.37,WSW,248,0.0,0.0,37,0.00,CLR,,0.00,WeatherDisplay:10.37,2013-01-28 12:20:00,
2013-01-28 07:30:00,14.7,-6.9,30.37,WSW,248,0.0,0.0,37,0.00,CLR,,0.00,WeatherDisplay:10.37,2013-01-28 12:30:00,
2013-01-28 07:40:00,15.0,-6.1,30.37,WSW,248,0.0,0.0,38,0.00,CLR,,0.00,WeatherDisplay:10.37,2013-01-28 12:40:00,
2013-01-28 07:50:00,15.3,-5.9,30.37,WSW,248,0.0,0.0,38,0.00,CLR,,0.00,WeatherDisplay:10.37,2013-01-28 12:50:00,
2013-01-28 08:00:00,15.3,-6.4,30.38,WSW,248,0.0,0.0,37,0.00,CLR,,0.00,WeatherDisplay:10.37,2013-01-28 13:00:00,
2013-01-28 08:05:00,15.3,-6.4,30.37,WSW,248,0.0,0.0,37,0.00,CLR,,0.00,WeatherDisplay:10.37,2013-01-28 13:05:00,
2013-01-28 08:10:00,15.4,-6.2,30.37,WSW,248,0.0,0.0,37,0.00,CLR,,0.00,WeatherDisplay:10.37,2013-01-28 13:10:00,
2013-01-28 08:20:00,16.0,-5.8,30.37,WSW,248,0.0,0.0,37,0.00,CLR,,0.00,WeatherDisplay:10.37,2013-01-28 13:20:00,
2013-01-28 08:30:00,16.7,-5.1,30.36,WSW,248,0.0,0.0,37,0.00,CLR,,0.00,WeatherDisplay:10.37,2013-01-28 13:30:00,
2013-01-28 08:40:00,17.5,-4.9,30.37,WSW,248,0.0,0.0,36,0.00,CLR,,0.00,WeatherDisplay:10.37,2013-01-28 13:40:00,
2013-01-28 08:50:00,18.4,-4.2,30.37,WSW,248,0.0,0.0,36,0.00,CLR,,0.00,WeatherDisplay:10.37,2013-01-28 13:50:00,
2013-01-28 09:00:00,19.1,-4.7,30.37,WSW,248,0.0,0.0,34,0.00,CLR,,0.00,WeatherDisplay:10.37,2013-01-28 14:00:00,
2013-01-28 09:10:00,19.7,-5.4,30.37,WSW,253,0.0,0.0,32,0.00,CLR,,0.00,WeatherDisplay:10.37,2013-01-28 14:10:00,
2013-01-28 09:20:00,19.8,-6.7,30.37,WSW,254,0.0,0.0,30,0.00,CLR,,0.00,WeatherDisplay:10.37,2013-01-28 14:20:00,
2013-01-28 09:30:00,19.9,-8.0,30.36,SW,226,0.0,0.0,28,0.00,CLR,,0.00,WeatherDisplay:10.37,2013-01-28 14:30:00,
2013-01-28 09:40:00,20.4,-8.3,30.36,SW,225,0.0,0.0,27,0.00,CLR,,0.00,WeatherDisplay:10.37,2013-01-28 14:40:00,
2013-01-28 09:50:00,20.8,-10.4,30.35,SW,225,0.0,0.0,24,0.00,CLR,,0.00,WeatherDisplay:10.37,2013-01-28 14:50:00,
2013-01-28 10:00:00,20.7,-14.2,30.35,SW,225,0.0,0.0,20,0.00,CLR,,0.00,WeatherDisplay:10.37,2013-01-28 15:00:00,
2013-01-28 10:05:00,20.8,-15.1,30.35,SW,225,0.0,0.0,19,0.00,CLR,,0.00,WeatherDisplay:10.37,2013-01-28 15:05:00,
2013-01-28 10:10:00,20.8,-15.0,30.35,SW,225,0.0,0.0,19,0.00,CLR,,0.00,WeatherDisplay:10.37,2013-01-28 15:10:00,
2013-01-28 10:20:00,21.4,-14.6,30.34,SW,225,0.0,0.0,19,0.00,CLR,,0.00,WeatherDisplay:10.37,2013-01-28 15:20:00,
2013-01-28 10:30:00,21.9,-14.1,30.34,SW,222,0.0,0.0,19,0.00,CLR,,0.00,WeatherDisplay:10.37,2013-01-28 15:30:00,
2013-01-28 10:40:00,22.4,-13.7,30.33,East,85,0.0,0.0,19,0.00,CLR,,0.00,WeatherDisplay:10.37,2013-01-28 15:40:00,
2013-01-28 10:50:00,22.7,-13.5,30.33,East,94,0.0,0.0,19,0.00,CLR,,0.00,WeatherDisplay:10.37,2013-01-28 15:50:00,
2013-01-28 11:00:00,23.2,-13.1,30.33,ESE,112,0.0,0.0,19,0.00,CLR,,0.00,WeatherDisplay:10.37,2013-01-28 16:00:00,
2013-01-28 11:05:00,23.4,-12.9,30.33,ESE,112,0.0,0.0,19,0.00,CLR,,0.00,WeatherDisplay:10.37,2013-01-28 16:05:00,
2013-01-28 11:10:00,23.7,-12.6,30.33,ESE,112,0.0,0.0,19,0.00,CLR,,0.00,WeatherDisplay:10.37,2013-01-28 16:10:00,
2013-01-28 11:20:00,24.9,-11.6,30.32,SE,133,0.0,0.0,19,0.00,CLR,,0.00,WeatherDisplay:10.37,2013-01-28 16:20:00,
2013-01-28 11:30:00,25.8,-10.9,30.31,SE,146,0.0,0.0,19,0.00,CLR,,0.00,WeatherDisplay:10.37,2013-01-28 16:30:00,
2013-01-28 11:40:00,26.4,-10.4,30.30,SSW,193,0.0,2.0,19,0.00,CLR,,0.00,WeatherDisplay:10.37,2013-01-28 16:40:00,
2013-01-28 11:50:00,27.0,-9.9,30.29,South,176,0.0,2.0,19,0.00,CLR,,0.00,WeatherDisplay:10.37,2013-01-28 16:50:00,
2013-01-28 12:00:00,27.0,-9.9,30.29,SSW,211,1.0,3.0,19,0.00,CLR,,0.00,WeatherDisplay:10.37,2013-01-28 17:00:00,
2013-01-28 12:05:00,26.8,-10.1,30.29,WSW,238,0.0,0.0,19,0.00,CLR,,0.00,WeatherDisplay:10.37,2013-01-28 17:05:00,
2013-01-28 12:10:00,26.8,-10.1,30.29,SW,221,1.0,6.0,19,0.00,CLR,,0.00,WeatherDisplay:10.37,2013-01-28 17:10:00,
2013-01-28 12:20:00,27.0,-9.9,30.28,South,187,0.0,0.0,19,0.00,CLR,,0.00,WeatherDisplay:10.37,2013-01-28 17:20:00,
2013-01-28 12:30:00,27.6,-9.4,30.26,South,188,0.0,7.0,19,0.00,CLR,,0.00,WeatherDisplay:10.37,2013-01-28 17:30:00,
2013-01-28 12:40:00,27.0,-9.9,30.26,SSW,195,0.0,2.0,19,0.00,CLR,,0.00,WeatherDisplay:10.37,2013-01-28 17:40:00,
2013-01-28 12:50:00,26.2,-10.5,30.26,South,189,0.0,3.0,19,0.00,CLR,,0.00,WeatherDisplay:10.37,2013-01-28 17:50:00,
2013-01-28 13:00:00,25.7,-11.0,30.25,South,177,0.0,2.0,19,0.00,CLR,,0.00,WeatherDisplay:10.37,2013-01-28 18:00:00,
2013-01-28 13:05:00,25.6,-6.3,30.24,South,174,0.0,0.0,24,0.00,CLR,,0.00,WeatherDisplay:10.37,2013-01-28 18:05:00,
2013-01-28 13:10:00,25.5,-1.0,30.23,South,181,0.0,3.0,31,0.00,CLR,,0.00,WeatherDisplay:10.37,2013-01-28 18:10:00,
2013-01-28 13:20:00,25.2,1.9,30.22,South,186,0.0,0.0,36,0.00,CLR,,0.00,WeatherDisplay:10.37,2013-01-28 18:20:00,
2013-01-28 13:30:00,24.8,3.3,30.21,SSE,160,0.0,0.0,39,0.00,CLR,,0.00,WeatherDisplay:10.37,2013-01-28 18:30:00,
2013-01-28 13:40:00,24.3,3.9,30.20,SSE,164,1.0,6.0,41,0.00,CLR,,0.00,WeatherDisplay:10.37,2013-01-28 18:40:00,
2013-01-28 13:50:00,23.9,4.1,30.20,South,186,0.0,2.0,42,0.00,CLR,,0.00,WeatherDisplay:10.37,2013-01-28 18:50:00,
2013-01-28 14:00:00,23.7,5.0,30.18,South,174,1.0,7.0,44,0.00,CLR,,0.00,WeatherDisplay:10.37,2013-01-28 19:00:00,
2013-01-28 14:05:00,23.7,5.4,30.18,South,187,0.0,2.0,45,0.00,CLR,,0.00,WeatherDisplay:10.37,2013-01-28 19:05:00,
2013-01-28 14:10:00,23.7,5.9,30.17,South,184,0.0,6.0,46,0.00,CLR,,0.00,WeatherDisplay:10.37,2013-01-28 19:10:00,
2013-01-28 14:20:00,23.5,6.2,30.17,SSE,168,0.0,4.0,47,0.00,CLR,,0.00,WeatherDisplay:10.37,2013-01-28 19:20:00,
2013-01-28 14:30:00,23.5,6.7,30.15,South,170,0.0,7.0,48,0.00,CLR,,0.00,WeatherDisplay:10.37,2013-01-28 19:30:00,
2013-01-28 14:40:00,23.5,7.2,30.15,SSE,162,0.0,3.0,49,0.00,CLR,,0.00,WeatherDisplay:10.37,2013-01-28 19:40:00,
2013-01-28 14:50:00,23.5,7.6,30.15,SSE,147,0.0,3.0,50,0.00,CLR,,0.00,WeatherDisplay:10.37,2013-01-28 19:50:00,
2013-01-28 15:00:00,23.6,8.1,30.13,ESE,120,0.0,0.0,51,0.00,CLR,,0.00,WeatherDisplay:10.37,2013-01-28 20:00:00,
2013-01-28 15:05:00,23.6,8.1,30.14,ENE,76,0.0,0.0,51,0.00,CLR,,0.00,WeatherDisplay:10.37,2013-01-28 20:05:00,
2013-01-28 15:10:00,23.4,7.9,30.13,ENE,65,0.0,0.0,51,0.00,CLR,,0.00,WeatherDisplay:10.37,2013-01-28 20:10:00,
2013-01-28 15:20:00,23.2,8.1,30.13,NNE,12,0.0,0.0,52,0.00,CLR,,0.00,WeatherDisplay:10.37,2013-01-28 20:20:00,
2013-01-28 15:30:00,22.9,8.3,30.14,SSW,202,0.0,0.0,53,0.00,CLR,,0.00,WeatherDisplay:10.37,2013-01-28 20:30:00,
2013-01-28 15:40:00,22.7,8.1,30.15,NNE,27,0.0,0.0,53,0.00,CLR,,0.00,WeatherDisplay:10.37,2013-01-28 20:40:00,
2013-01-28 15:50:00,22.6,8.5,30.15,NE,45,0.0,0.0,54,0.00,CLR,,0.00,WeatherDisplay:10.37,2013-01-28 20:50:00,
2013-01-28 16:00:00,22.6,8.8,30.15,NW,322,0.0,0.0,55,0.00,CLR,,0.00,WeatherDisplay:10.37,2013-01-28 21:00:00,
2013-01-28 16:05:00,22.6,8.8,30.15,NW,305,0.0,0.0,55,0.00,CLR,,0.00,WeatherDisplay:10.37,2013-01-28 21:05:00,
2013-01-28 16:10:00,22.5,8.8,30.12,WSW,237,0.0,0.0,55,0.00,CLR,,0.00,WeatherDisplay:10.37,2013-01-28 21:10:00,
2013-01-28 16:20:00,22.2,8.9,30.13,SSW,193,0.0,0.0,56,0.00,CLR,,0.00,WeatherDisplay:10.37,2013-01-28 21:20:00,
2013-01-28 16:30:00,22.0,9.1,30.12,SSE,148,0.0,0.0,57,0.00,CLR,,0.00,WeatherDisplay:10.37,2013-01-28 21:30:00,
2013-01-28 16:40:00,22.1,9.2,30.12,SE,135,0.0,0.0,57,0.00,CLR,,0.00,WeatherDisplay:10.37,2013-01-28 21:40:00,
2013-01-28 16:50:00,21.9,9.4,30.11,NE,55,0.0,0.0,58,0.00,CLR,,0.00,WeatherDisplay:10.37,2013-01-28 21:50:00,
2013-01-28 17:00:00,21.8,9.3,30.11,NE,45,0.0,0.0,58,0.00,CLR,,0.00,WeatherDisplay:10.37,2013-01-28 22:00:00,
2013-01-28 17:05:00,21.7,9.1,30.11,NE,45,0.0,0.0,58,0.00,CLR,,0.00,WeatherDisplay:10.37,2013-01-28 22:05:00,
2013-01-28 17:10:00,21.6,9.0,30.11,NE,45,0.0,0.0,58,0.00,CLR,,0.00,WeatherDisplay:10.37,2013-01-28 22:10:00,
2013-01-28 17:20:00,21.6,9.0,30.09,NE,45,0.0,0.0,58,0.00,CLR,,0.00,WeatherDisplay:10.37,2013-01-28 22:20:00,
2013-01-28 17:30:00,21.6,9.4,30.10,SSE,165,0.0,0.0,59,0.00,CLR,,0.00,WeatherDisplay:10.37,2013-01-28 22:30:00,
2013-01-28 17:40:00,21.6,9.4,30.09,SSW,202,0.0,0.0,59,0.00,CLR,,0.00,WeatherDisplay:10.37,2013-01-28 22:40:00,
2013-01-28 17:50:00,21.6,9.8,30.09,SSE,167,0.0,0.0,60,0.00,CLR,,0.00,WeatherDisplay:10.37,2013-01-28 22:50:00,
2013-01-28 18:00:00,21.6,9.8,30.07,East,90,0.0,0.0,60,0.00,CLR,,0.00,WeatherDisplay:10.37,2013-01-28 23:00:00,
2013-01-28 18:10:00,21.6,9.8,30.08,SE,130,0.0,0.0,60,0.00,CLR,,0.00,WeatherDisplay:10.37,2013-01-28 23:10:00,
2013-01-28 18:20:00,21.5,10.1,30.09,SSE,158,0.0,0.0,61,0.00,CLR,,0.00,WeatherDisplay:10.37,2013-01-28 23:20:00,
2013-01-28 18:30:00,21.6,10.2,30.08,SSE,158,0.0,0.0,61,0.00,CLR,,0.00,WeatherDisplay:10.37,2013-01-28 23:30:00,
2013-01-28 18:40:00,21.6,10.3,30.06,ESE,123,0.0,0.0,61,0.00,CLR,,0.00,WeatherDisplay:10.37,2013-01-28 23:40:00,
2013-01-28 18:50:00,21.6,10.2,30.07,NNE,22,0.0,0.0,61,0.00,CLR,,0.00,WeatherDisplay:10.37,2013-01-28 23:50:00,
2013-01-28 19:00:00,21.4,10.4,30.08,NNE,22,0.0,0.0,62,0.00,CLR,,0.00,WeatherDisplay:10.37,2013-01-29 00:00:00,
2013-01-28 19:05:00,21.6,10.5,30.10,NNE,22,0.0,0.0,62,0.00,CLR,,0.00,WeatherDisplay:10.37,2013-01-29 00:05:00,
2013-01-28 19:10:00,21.4,10.4,30.10,NNE,22,0.0,0.0,62,0.00,CLR,,0.00,WeatherDisplay:10.37,2013-01-29 00:10:00,
2013-01-28 19:20:00,21.6,10.9,30.07,NNE,22,0.0,0.0,63,0.00,CLR,,0.00,WeatherDisplay:10.37,2013-01-29 00:20:00,
2013-01-28 19:30:00,21.6,10.9,30.08,NNE,22,0.0,0.0,63,0.00,CLR,,0.00,WeatherDisplay:10.37,2013-01-29 00:30:00,
2013-01-28 19:40:00,21.5,10.8,30.08,NNE,22,0.0,0.0,63,0.00,CLR,,0.00,WeatherDisplay:10.37,2013-01-29 00:40:00,
2013-01-28 19:50:00,21.6,11.3,30.06,East,81,0.0,0.0,64,0.00,CLR,,0.00,WeatherDisplay:10.37,2013-01-29 00:50:00,
2013-01-28 20:00:00,21.7,11.8,30.06,ENE,58,0.0,0.0,65,0.00,CLR,,0.00,WeatherDisplay:10.37,2013-01-29 01:00:00,
2013-01-28 20:05:00,21.7,11.8,30.06,NE,47,0.0,0.0,65,0.00,CLR,,0.00,WeatherDisplay:10.37,2013-01-29 01:05:00,
2013-01-28 20:10:00,21.7,11.8,30.05,NE,47,0.0,0.0,65,0.00,CLR,,0.00,WeatherDisplay:10.37,2013-01-29 01:10:00,
2013-01-28 20:20:00,21.7,11.8,30.04,SSE,149,0.0,0.0,65,0.00,CLR,,0.00,WeatherDisplay:10.37,2013-01-29 01:20:00,
2013-01-28 20:30:00,21.7,12.1,30.04,NNE,27,0.0,0.0,66,0.00,CLR,,0.00,WeatherDisplay:10.37,2013-01-29 01:30:00,
2013-01-28 20:40:00,21.7,12.1,30.04,ENE,61,0.0,0.0,66,0.00,CLR,,0.00,WeatherDisplay:10.37,2013-01-29 01:40:00,
2013-01-28 20:50:00,21.7,12.1,30.03,East,95,0.0,0.0,66,0.00,CLR,,0.00,WeatherDisplay:10.37,2013-01-29 01:50:00,
2013-01-28 21:00:00,21.6,12.3,30.04,East,101,0.0,0.0,67,0.00,CLR,,0.00,WeatherDisplay:10.37,2013-01-29 02:00:00,
2013-01-28 21:05:00,21.6,12.3,30.03,East,90,0.0,0.0,67,0.00,CLR,,0.00,WeatherDisplay:10.37,2013-01-29 02:05:00,
2013-01-28 21:10:00,21.6,12.3,30.03,East,90,0.0,0.0,67,0.00,CLR,,0.00,WeatherDisplay:10.37,2013-01-29 02:10:00,
2013-01-28 21:20:00,21.6,12.3,30.03,East,90,0.0,0.0,67,0.00,CLR,,0.00,WeatherDisplay:10.37,2013-01-29 02:20:00,
2013-01-28 21:30:00,21.6,12.3,30.02,East,90,0.0,0.0,67,0.00,CLR,,0.00,WeatherDisplay:10.37,2013-01-29 02:30:00,
2013-01-28 21:40:00,21.6,12.3,30.02,ENE,75,0.0,0.0,67,0.00,CLR,,0.00,WeatherDisplay:10.37,2013-01-29 02:40:00,
2013-01-28 21:50:00,21.6,12.3,30.02,ENE,68,0.0,0.0,67,0.00,CLR,,0.00,WeatherDisplay:10.37,2013-01-29 02:50:00,
2013-01-28 22:00:00,21.5,12.3,30.02,SE,127,0.0,0.0,67,0.00,CLR,,0.00,WeatherDisplay:10.37,2013-01-29 03:00:00,
2013-01-28 22:05:00,21.6,12.3,30.02,ESE,120,0.0,0.0,67,0.00,CLR,,0.00,WeatherDisplay:10.37,2013-01-29 03:05:00,
2013-01-28 22:10:00,21.5,12.3,30.02,ESE,112,0.0,0.0,67,0.00,CLR,,0.00,WeatherDisplay:10.37,2013-01-29 03:10:00,
2013-01-28 22:20:00,21.4,12.5,30.02,NE,45,0.0,0.0,68,0.00,CLR,,0.00,WeatherDisplay:10.37,2013-01-29 03:20:00,
2013-01-28 22:30:00,21.5,12.5,30.02,ENE,57,0.0,0.0,68,0.00,CLR,,0.00,WeatherDisplay:10.37,2013-01-29 03:30:00,
2013-01-28 22:40:00,21.4,12.5,30.02,ENE,68,0.0,0.0,68,0.00,CLR,,0.00,WeatherDisplay:10.37,2013-01-29 03:40:00,
2013-01-28 22:50:00,21.4,12.5,30.03,ENE,68,0.0,0.0,68,0.00,CLR,,0.00,WeatherDisplay:10.37,2013-01-29 03:50:00,
2013-01-28 23:00:00,21.4,12.5,30.02,ENE,68,0.0,0.0,68,0.00,CLR,,0.00,WeatherDisplay:10.37,2013-01-29 04:00:00,
2013-01-28 23:05:00,21.6,12.6,30.03,ENE,68,0.0,0.0,68,0.00,CLR,,0.00,WeatherDisplay:10.37,2013-01-29 04:05:00,
2013-01-28 23:10:00,21.5,12.6,30.02,ENE,68,0.0,0.0,68,0.00,CLR,,0.00,WeatherDisplay:10.37,2013-01-29 04:10:00,
2013-01-28 23:20:00,21.6,12.6,30.01,ENE,68,0.0,0.0,68,0.00,CLR,,0.00,WeatherDisplay:10.37,2013-01-29 04:20:00,
2013-01-28 23:30:00,21.7,13.1,30.01,SSE,161,0.0,0.0,69,0.00,CLR,,0.00,WeatherDisplay:10.37,2013-01-29 04:30:00,
2013-01-28 23:40:00,21.7,13.1,30.02,South,180,0.0,0.0,69,0.00,CLR,,0.00,WeatherDisplay:10.37,2013-01-29 04:40:00,
2013-01-28 23:50:00,21.7,13.1,30.01,SSE,158,0.0,0.0,69,0.00,CLR,,0.00,WeatherDisplay:10.37,2013-01-29 04:50:00,